Flight Track Log - Related Links

Times and Time Zones

All times are in EST time to prevent confusion due to time zone crossing. See the SWA1034 flight status page for this flight to view local times or setup timezone preferences in your user account.

Time Position Orientation Groundspeed Altitude Reporting Facility
EST Latitude Longitude Course Direction KTS MPH feet Rate Location/Type
Sat 11:42:18 PM 33.9470 -118.4320 263° West 149 171 900  Level FlightAware ADS-B
Sat 11:42:38 PM 33.9450 -118.4510 263° West 189 217 1,400 2,000 Climbing FlightAware ADS-B
Sat 11:43:03 PM 33.9430 -118.4760 264° West 211 243 2,400 2,667 Climbing FlightAware ADS-B
Sat 11:43:41 PM 33.9510 -118.5270 281° West 257 296 4,200 2,793 Climbing FlightAware ADS-B
Sat 11:44:01 PM 33.9580 -118.5550 287° West 276 318 5,100 3,200 Climbing FlightAware ADS-B
Sat 11:44:26 PM 33.9660 -118.5930 284° West 276 318 6,600 2,250 Climbing FlightAware ADS-B
Sat 11:44:49 PM 33.9750 -118.6290 287° West 283 326 6,900 873 Climbing FlightAware ADS-B
Sat 11:45:21 PM 34.0000 -118.6660 309° West 289 333 7,400 2,000 Climbing FlightAware ADS-B
Sat 11:45:49 PM 34.0310 -118.6920 325° Northwest 291 335 8,900 2,195 Climbing FlightAware ADS-B
Sat 11:46:02 PM 34.0490 -118.6950 352° North 297 342 8,900  Level FlightAware ADS-B
Sat 11:46:42 PM 34.1000 -118.6670 24° Northeast 297 342 8,900 2,063 Level FlightAware ADS-B
Sat 11:47:38 PM 34.1690 -118.6260 26° Northeast 309 356 12,200 3,063 Climbing FlightAware ADS-B
Sat 11:48:18 PM 34.2250 -118.6130 11° North 321 369 13,800 1,342 Climbing FlightAware ADS-B
Sat 11:48:54 PM 34.2790 -118.6150 358° North 320 368 13,900 120 Climbing FlightAware ADS-B
Sat 11:49:58 PM 34.3770 -118.6170 359° North 354 407 14,000 1,765 Climbing FlightAware ADS-B
Sat 11:50:53 PM 34.4660 -118.6150 North 354 407 17,400 3,563 Climbing FlightAware ADS-B
Sat 11:51:34 PM 34.5380 -118.6120 North 374 430 19,700 3,225 Climbing FlightAware ADS-B
Sat 11:52:13 PM 34.6030 -118.6240 351° North 386 444 21,700 3,181 Climbing FlightAware ADS-B
Sat 11:52:57 PM 34.6850 -118.6400 351° North 399 459 24,100 3,000 Climbing FlightAware ADS-B
Sat 11:53:49 PM 34.7830 -118.6590 351° North 413 475 26,500 2,640 Climbing FlightAware ADS-B
Sat 11:54:37 PM 34.8750 -118.6780 350° North 426 490 28,500 2,188 Climbing FlightAware ADS-B
Sat 11:55:25 PM 34.9700 -118.6960 351° North 438 504 30,000 900 Climbing FlightAware ADS-B
Sat 11:56:17 PM 35.0740 -118.7170 351° North 439 505 30,000  Level FlightAware ADS-B
Sat 11:57:07 PM 35.1720 -118.7370 351° North 441 507 30,000  Level FlightAware ADS-B
Sat 11:57:31 PM 35.2220 -118.7460 352° North 441 507 30,000  Level FlightAware ADS-B
Sat 11:58:23 PM 35.3270 -118.7680 350° North 439 505 30,000  Level FlightAware ADS-B
Sat 11:58:46 PM 35.3740 -118.7770 351° North 440 506 30,000 1,286 Level FlightAware ADS-B
Sat 11:59:47 PM 35.4980 -118.8020 351° North 455 524 31,800 2,019 Climbing FlightAware ADS-B
Sun 12:00:30 AM 35.5890 -118.8200 351° North 452 520 33,500 2,387 Climbing FlightAware ADS-B
Sun 12:01:20 AM 35.6910 -118.8410 351° North 447 514 35,500 2,143 Climbing FlightAware ADS-B
Sun 12:02:08 AM 35.7890 -118.8600 351° North 446 513 37,000 1,860 Climbing FlightAware ADS-B
Sun 12:03:00 AM 35.8940 -118.8820 350° North 441 507 38,600 1,813 Climbing FlightAware ADS-B
Sun 12:03:44 AM 35.9820 -118.8990 351° North 434 499 39,900 1,000 Climbing FlightAware ADS-B
Sun 12:04:24 AM 36.0620 -118.9150 351° North 436 502 40,000 62 Climbing FlightAware ADS-B
Sun 12:05:21 AM 36.1760 -118.9380 351° North 437 503 40,000  Level FlightAware ADS-B
Sun 12:06:09 AM 36.2710 -118.9580 350° North 437 503 40,000  Level FlightAware ADS-B
Sun 12:06:54 AM 36.3620 -118.9770 350° North 436 502 40,000  Level FlightAware ADS-B
Sun 12:07:33 AM 36.4390 -118.9930 351° North 437 503 40,000  Level FlightAware ADS-B
Sun 12:08:25 AM 36.5410 -119.0140 351° North 437 503 40,000  Level FlightAware ADS-B
Sun 12:09:32 AM 36.6740 -119.0410 351° North 436 502 40,000  Level FlightAware ADS-B
Sun 12:10:07 AM 36.7450 -119.0560 350° North 436 502 40,000  Level FlightAware ADS-B
Sun 12:10:53 AM 36.8350 -119.0750 350° North 436 502 40,000  Level FlightAware ADS-B
Sun 12:11:19 AM 36.8890 -119.0860 351° North 436 502 40,000 -538 Level FlightAware ADS-B
Sun 12:12:11 AM 36.9930 -119.1080 350° North 434 499 39,300 -927 Descending FlightAware ADS-B
Sun 12:13:09 AM 37.1090 -119.1320 351° North 430 495 38,300 -1,000 Descending FlightAware ADS-B
Sun 12:14:05 AM 37.2180 -119.1540 351° North 433 498 37,400 -923 Descending FlightAware ADS-B
Sun 12:14:53 AM 37.3130 -119.1740 350° North 434 499 36,700 -897 Descending FlightAware ADS-B
Sun 12:15:32 AM 37.3900 -119.1910 350° North 437 503 36,100 -955 Descending FlightAware ADS-B
Sun 12:16:21 AM 37.4890 -119.2110 351° North 439 505 35,300 -986 Descending FlightAware ADS-B
Sun 12:16:45 AM 37.5370 -119.2210 351° North 441 507 34,900 -1,026 Descending FlightAware ADS-B
Sun 12:17:37 AM 37.6420 -119.2440 350° North 442 509 34,000 -1,020 Descending FlightAware ADS-B
Sun 12:18:25 AM 37.7390 -119.2650 350° North 432 497 33,200 -1,050 Descending FlightAware ADS-B
Sun 12:18:57 AM 37.8010 -119.2780 351° North 428 493 32,600 -1,023 Descending FlightAware ADS-B
Sun 12:19:53 AM 37.9090 -119.3010 350° North 422 486 31,700 -1,000 Descending FlightAware ADS-B
Sun 12:20:45 AM 38.0090 -119.3230 350° North 420 483 30,800 -1,023 Descending FlightAware ADS-B
Sun 12:21:21 AM 38.0770 -119.3370 351° North 415 478 30,200 -978 Descending FlightAware ADS-B
Sun 12:22:17 AM 38.1740 -119.3580 350° North 415 478 29,300 -1,016 Descending FlightAware ADS-B
Sun 12:23:25 AM 38.3130 -119.3880 350° North 406 467 28,100 -1,018 Descending FlightAware ADS-B
Sun 12:24:09 AM 38.3940 -119.4050 351° North 399 459 27,400 -1,000 Descending FlightAware ADS-B
Sun 12:24:49 AM 38.4640 -119.4210 350° North 391 450 26,700 -1,059 Descending FlightAware ADS-B
Sun 12:25:17 AM 38.5150 -119.4320 350° North 389 448 26,200 -975 Descending FlightAware ADS-B
Sun 12:26:09 AM 38.6060 -119.4520 350° North 386 444 25,400 -990 Descending FlightAware ADS-B
Sun 12:26:54 AM 38.6840 -119.4690 350° North 383 441 24,600 -839 Descending FlightAware ADS-B
Sun 12:27:42 AM 38.7540 -119.4840 351° North 380 437 24,100 -357 Descending FlightAware ADS-B
Sun 12:28:18 AM 38.8070 -119.4960 350° North 380 437 24,100  Level FlightAware ADS-B
Sun 12:29:06 AM 38.8780 -119.5120 350° North 380 437 24,100  Level FlightAware ADS-B
Sun 12:30:06 AM 38.9660 -119.5320 350° North 380 437 24,100  Level FlightAware ADS-B
Sun 12:30:54 AM 39.0370 -119.5480 350° North 380 437 24,100 -3,951 Level FlightAware ADS-B
Sun 12:33:31 AM 39.3200 -119.5950 353° North 335 386 10,600 -4,492 Descending FlightAware ADS-B
Sun 12:33:57 AM 39.3460 -119.6000 352° North 323 372 10,400 -519 Descending FlightAware ADS-B
Sun 12:34:52 AM 39.4260 -119.6150 352° North 277 319 9,900 -366 Descending FlightAware ADS-B
Sun 12:35:19 AM 39.4550 -119.6210 351° North 277 319 9,900 -783 Level FlightAware ADS-B
Sun 12:35:38 AM 39.4860 -119.6260 353° North 257 296 9,300 -1,043 Descending FlightAware ADS-B
Sun 12:36:05 AM 39.5130 -119.6310 352° North 245 282 9,100 -692 Descending FlightAware ADS-B
Sun 12:36:30 AM 39.5430 -119.6370 351° North 232 267 8,700 -960 Descending FlightAware ADS-B
Sun 12:36:55 AM 39.5650 -119.6410 352° North 218 251 8,300 -1,043 Descending FlightAware ADS-B
Sun 12:37:16 AM 39.5830 -119.6470 346° North 210 242 7,900 -1,179 Descending FlightAware ADS-B
Sun 12:37:51 AM 39.6080 -119.6790 315° West 196 226 7,200 -1,269 Descending FlightAware ADS-B
Sun 12:38:08 AM 39.6120 -119.7020 283° West 192 221 6,800 -982 Descending FlightAware ADS-B
Sun 12:38:46 AM 39.6030 -119.7400 253° West 178 205 6,300 -915 Descending FlightAware ADS-B
Sun 12:39:07 AM 39.5920 -119.7560 228° Southwest 163 188 5,900 -1,021 Descending FlightAware ADS-B
Sun 12:39:33 AM 39.5750 -119.7660 204° Southwest 145 167 5,500 -844 Descending FlightAware ADS-B
Sun 12:40:11 AM 39.5520 -119.7690 186° South 136 157 5,000 -806 Descending FlightAware ADS-B
Sun 12:40:40 AM 39.5310 -119.7690 180° South 140 161 4,600 -714 Descending FlightAware ADS-B
Sun 12:40:53 AM 39.5260 -119.7690 180° South 139 160 4,500 -158 Descending FlightAware ADS-B
Sun 12:41:18 AM 39.5120 -119.7700 183° South 139 160 4,500  Level FlightAware ADS-B
Sun 12:47:00 AM 39.4991 -119.7681 237° Southwest  Level Estimated
Sun 12:48:00 AM 39.4991 -119.7681 237° Southwest  Level Estimated

Login

Don't have an account? Register now (free) for customized features, flight alerts, and more!